Time;durP1;ratioP1;P1;durP2;ratioP2;P2;SDS_P1;SDS_P2;PMS_P1;PMS_P2;Temp;Humidity;BMP_temperature;BMP_pressure;BME280_temperature;BME280_humidity;BME280_pressure;Samples;Min_cycle;Max_cycle;Signal;HPM_P1;HPM_P2
2021/11/20 00:01:54;;;;;;;34.40;14.18;;;;;;;6.01;100.00;100189.47;5065166;28;20070;-68
2021/11/20 00:04:20;;;;;;;28.25;13.95;;;;;;;5.89;100.00;100177.13;5073011;28;20103;-68
2021/11/20 00:06:48;;;;;;;26.80;13.82;;;;;;;5.99;100.00;100193.28;5073383;28;20584;-68
2021/11/20 00:09:16;;;;;;;29.20;13.35;;;;;;;5.87;100.00;100169.22;5072538;28;20040;-68
2021/11/20 00:11:44;;;;;;;29.77;13.77;;;;;;;6.01;100.00;100181.41;5072968;28;20024;-68
2021/11/20 00:14:11;;;;;;;29.63;14.85;;;;;;;5.99;100.00;100164.56;5069189;28;20041;-68
2021/11/20 00:16:39;;;;;;;31.63;14.63;;;;;;;6.10;100.00;100179.72;5068125;28;20311;-68
2021/11/20 00:19:05;;;;;;;31.08;14.57;;;;;;;6.16;100.00;100192.59;5071799;28;20504;-68
2021/11/20 00:21:41;;;;;;;24.67;13.18;;;;;;;6.12;100.00;100183.94;5073153;28;20028;-68
2021/11/20 00:24:37;;;;;;;24.92;13.20;;;;;;;6.03;100.00;100183.97;5067103;28;20021;-68
2021/11/20 00:27:06;;;;;;;30.48;15.40;;;;;;;5.96;100.00;100183.66;5049034;28;20043;-68
2021/11/20 00:29:43;;;;;;;30.30;14.85;;;;;;;5.97;100.00;100168.41;5072977;28;20482;-68
2021/11/20 00:32:11;;;;;;;29.92;14.70;;;;;;;6.02;100.00;100171.50;5072884;28;20429;-68
2021/11/20 00:34:39;;;;;;;32.85;15.05;;;;;;;6.01;100.00;100165.28;5072862;28;20047;-68
2021/11/20 00:37:05;;;;;;;29.27;14.60;;;;;;;6.00;100.00;100174.34;5072145;28;20498;-68
2021/11/20 00:39:32;;;;;;;31.38;14.75;;;;;;;5.82;100.00;100144.59;5062138;28;20036;-68
2021/11/20 00:41:57;;;;;;;29.02;13.45;;;;;;;5.92;100.00;100158.91;5060134;28;20082;-68
2021/11/20 00:44:23;;;;;;;32.60;13.93;;;;;;;5.97;100.00;100165.69;5055785;28;20115;-69
2021/11/20 00:46:49;;;;;;;27.08;14.15;;;;;;;5.98;100.00;100162.06;5070626;28;20402;-68
2021/11/20 00:49:16;;;;;;;32.92;13.90;;;;;;;5.91;100.00;100149.13;5067400;28;20043;-69
2021/11/20 00:51:42;;;;;;;28.08;14.25;;;;;;;5.75;100.00;100129.19;5059726;28;20095;-69
2021/11/20 00:54:07;;;;;;;28.83;13.95;;;;;;;5.89;100.00;100161.00;5052651;28;20044;-68
2021/11/20 00:56:34;;;;;;;30.15;14.52;;;;;;;5.95;100.00;100163.19;5067075;28;20070;-68
2021/11/20 00:59:00;;;;;;;26.55;14.13;;;;;;;5.93;100.00;100157.06;5072310;28;20026;-68
2021/11/20 01:01:33;;;;;;;27.05;14.27;;;;;;;5.89;100.00;100156.50;5072953;28;20017;-68
2021/11/20 01:04:00;;;;;;;27.48;14.05;;;;;;;5.74;100.00;100127.47;5072435;28;20059;-68
2021/11/20 01:06:26;;;;;;;25.92;13.88;;;;;;;6.02;100.00;100163.44;5070619;28;20100;-68
2021/11/20 01:08:53;;;;;;;26.80;13.95;;;;;;;6.01;100.00;100164.44;5057561;28;20546;-68
2021/11/20 01:11:26;;;;;;;26.55;12.82;;;;;;;5.92;100.00;100166.97;5068696;28;20056;-68
2021/11/20 01:13:53;;;;;;;26.98;13.75;;;;;;;5.98;100.00;100167.41;5065218;28;20024;-69
2021/11/20 01:16:21;;;;;;;31.00;14.00;;;;;;;5.90;100.00;100162.72;5072308;28;20099;-68
2021/11/20 01:18:47;;;;;;;28.38;13.90;;;;;;;5.90;100.00;100155.50;5072110;28;20028;-68
2021/11/20 01:21:14;;;;;;;28.60;13.68;;;;;;;5.97;100.00;100154.97;5065387;28;20024;-68
2021/11/20 01:23:41;;;;;;;25.00;13.63;;;;;;;5.97;100.00;100157.66;5070962;28;20028;-68
2021/11/20 01:26:08;;;;;;;26.65;14.18;;;;;;;5.93;100.00;100157.94;5060737;28;20046;-68
2021/11/20 01:28:37;;;;;;;27.92;13.35;;;;;;;5.90;100.00;100147.44;5069439;28;20090;-68
2021/11/20 01:31:04;;;;;;;25.98;12.80;;;;;;;5.90;100.00;100155.50;5059182;28;20532;-68
2021/11/20 01:33:31;;;;;;;25.45;13.45;;;;;;;5.83;100.00;100157.03;5069002;28;20036;-68
2021/11/20 01:35:57;;;;;;;23.83;12.75;;;;;;;5.69;100.00;100123.41;5058379;28;20028;-68
2021/11/20 01:38:22;;;;;;;29.80;14.23;;;;;;;5.76;100.00;100142.47;5058898;28;20033;-68
2021/11/20 01:40:48;;;;;;;26.27;13.35;;;;;;;5.86;100.00;100135.28;5057240;28;20039;-69
2021/11/20 01:43:15;;;;;;;23.85;12.80;;;;;;;5.69;100.00;100123.41;5070421;28;20054;-68
2021/11/20 01:46:05;;;;;;;28.33;13.40;;;;;;;5.80;100.00;100121.56;5085540;28;20115;-68
2021/11/20 01:48:39;;;;;;;25.55;13.13;;;;;;;5.92;100.00;100125.78;5052323;28;20087;-68
2021/11/20 01:51:19;;;;;;;27.48;13.80;;;;;;;5.87;100.00;100131.63;5055192;28;20057;-68
2021/11/20 01:53:56;;;;;;;;;;;;;;;5.84;100.00;100120.28;5063636;28;20024;-68
2021/11/20 01:56:27;;;;;;;24.05;12.68;;;;;;;5.84;100.00;100110.41;5066864;28;19909;-68
2021/11/20 01:59:14;;;;;;;26.10;13.30;;;;;;;5.86;100.00;100115.63;5070997;28;20020;-68
2021/11/20 02:01:46;;;;;;;23.42;11.80;;;;;;;5.88;100.00;100106.44;5070377;28;20533;-68
2021/11/20 02:04:30;;;;;;;32.95;13.98;;;;;;;5.87;100.00;100110.13;5057296;28;20107;-68
2021/11/20 02:07:17;;;;;;;25.73;13.48;;;;;;;5.90;100.00;100106.31;5051551;28;20100;-69
2021/11/20 02:09:47;;;;;;;25.38;12.90;;;;;;;5.63;100.00;100072.94;5063341;28;20421;-68
2021/11/20 02:12:26;;;;;;;27.02;12.57;;;;;;;5.64;100.00;100068.41;5056068;28;20027;-69
2021/11/20 02:14:52;;;;;;;26.00;13.57;;;;;;;5.87;100.00;100102.06;5066493;28;20071;-68
2021/11/20 02:17:34;;;;;;;26.35;12.98;;;;;;;5.85;100.00;100093.28;5058781;28;20435;-68
2021/11/20 02:20:05;;;;;;;23.98;13.10;;;;;;;5.87;100.00;100085.94;5059864;28;20044;-68
2021/11/20 02:22:38;;;;;;;24.55;12.88;;;;;;;5.84;100.00;100083.56;5071165;28;20082;-69
2021/11/20 02:25:03;;;;;;;25.35;13.30;;;;;;;5.83;100.00;100079.16;5070569;28;20748;-68
2021/11/20 02:27:39;;;;;;;24.35;12.65;;;;;;;5.81;100.00;100075.75;5070846;28;20063;-69
2021/11/20 02:30:14;;;;;;;26.27;13.35;;;;;;;5.89;100.00;100075.06;5064403;28;20029;-68
2021/11/20 02:32:39;;;;;;;29.05;12.68;;;;;;;5.87;100.00;100072.53;5069533;28;20053;-68
2021/11/20 02:35:06;;;;;;;25.73;13.05;;;;;;;5.86;100.00;100073.50;5061057;28;20425;-68
2021/11/20 02:37:31;;;;;;;27.55;13.38;;;;;;;5.71;100.00;100034.63;5065348;28;20029;-69
2021/11/20 02:39:56;;;;;;;29.25;13.57;;;;;;;5.73;100.00;100040.72;5074617;28;20111;-68
2021/11/20 02:42:23;;;;;;;26.58;13.80;;;;;;;5.88;100.00;100062.63;5062136;28;20436;-68
2021/11/20 02:44:49;;;;;;;24.08;12.63;;;;;;;5.85;100.00;100061.06;5068638;28;20025;-69
2021/11/20 02:47:28;;;;;;;24.63;12.40;;;;;;;5.81;100.00;100056.97;5073034;28;20389;-68
2021/11/20 02:49:53;;;;;;;25.77;13.23;;;;;;;5.89;100.00;100054.44;5072907;28;20031;-69
2021/11/20 02:52:20;;;;;;;23.48;12.30;;;;;;;5.90;100.00;100050.75;5073404;28;20494;-68
2021/11/20 02:54:47;;;;;;;27.55;13.15;;;;;;;5.94;100.00;100045.97;5073405;28;20095;-68
2021/11/20 02:57:27;;;;;;;27.10;12.40;;;;;;;5.89;100.00;100042.81;5064744;28;20029;-68
2021/11/20 02:59:53;;;;;;;25.70;12.50;;;;;;;5.85;100.00;100036.06;5055456;28;20037;-68
2021/11/20 03:02:18;;;;;;;24.75;12.23;;;;;;;5.85;100.00;100030.69;5055949;28;20120;-68
2021/11/20 03:04:44;;;;;;;24.05;12.55;;;;;;;5.93;100.00;100028.13;5065913;28;20035;-68
2021/11/20 03:07:10;;;;;;;26.45;12.88;;;;;;;5.89;100.00;100019.53;5073272;28;20020;-68
2021/11/20 03:09:37;;;;;;;22.33;12.80;;;;;;;5.76;100.00;100015.41;5062153;28;20033;-69
2021/11/20 03:12:06;;;;;;;26.65;13.15;;;;;;;5.72;100.00;100009.50;5070695;28;20029;-68
2021/11/20 03:14:32;;;;;;;29.60;13.75;;;;;;;5.67;100.00;100001.00;5072924;28;20413;-68
2021/11/20 03:17:06;;;;;;;26.83;12.25;;;;;;;5.87;100.00;100028.72;5071851;28;20043;-68
2021/11/20 03:19:36;;;;;;;25.58;13.15;;;;;;;5.82;100.00;100015.69;5071677;28;20063;-68
2021/11/20 03:22:25;;;;;;;28.65;13.93;;;;;;;5.86;100.00;100019.78;5074204;28;20024;-68
2021/11/20 03:24:51;;;;;;;27.13;13.10;;;;;;;5.95;100.00;100019.94;5073541;28;20037;-69
2021/11/20 03:27:17;;;;;;;28.05;13.07;;;;;;;5.92;100.00;100010.28;5068519;28;20661;-69
2021/11/20 03:29:43;;;;;;;24.55;12.80;;;;;;;5.96;100.00;100017.13;5054036;28;20033;-68
2021/11/20 03:32:09;;;;;;;25.90;13.68;;;;;;;5.99;100.00;100019.50;5064238;28;20356;-68
2021/11/20 03:34:36;;;;;;;25.45;13.23;;;;;;;5.95;100.00;100015.44;5073124;28;20046;-68
2021/11/20 03:37:03;;;;;;;27.00;13.70;;;;;;;5.85;100.00;100014.56;5065191;28;20032;-68
2021/11/20 03:39:28;;;;;;;26.38;13.07;;;;;;;5.80;100.00;100006.94;5059030;28;20039;-68
2021/11/20 03:41:54;;;;;;;26.42;12.85;;;;;;;5.88;100.00;100004.38;5066028;28;20029;-68
2021/11/20 03:44:20;;;;;;;26.13;13.55;;;;;;;5.83;100.00;100012.00;5073596;28;20398;-68
2021/11/20 03:46:46;;;;;;;27.15;12.93;;;;;;;5.88;100.00;100014.28;5071167;28;20024;-68
2021/11/20 03:49:12;;;;;;;28.50;13.52;;;;;;;5.79;100.00;100013.31;5072953;28;20106;-68
2021/11/20 03:51:38;;;;;;;26.83;14.07;;;;;;;5.85;100.00;100006.50;5074435;28;20385;-68
2021/11/20 03:54:04;;;;;;;28.90;14.45;;;;;;;5.75;100.00;100006.50;5073153;28;20036;-68
2021/11/20 03:56:31;;;;;;;27.30;14.45;;;;;;;5.55;100.00;99975.28;5072704;28;20446;-69
2021/11/20 03:58:57;;;;;;;32.72;15.32;;;;;;;5.56;100.00;99975.16;5070115;28;20032;-68
2021/11/20 04:01:27;;;;;;;25.80;13.80;;;;;;;5.76;100.00;100002.81;5072286;28;20026;-68
2021/11/20 04:03:53;;;;;;;26.85;13.77;;;;;;;5.78;100.00;100006.22;5058651;28;20032;-68
2021/11/20 04:06:19;;;;;;;26.35;13.75;;;;;;;5.66;100.00;99983.22;5073474;28;20036;-68
2021/11/20 04:08:48;;;;;;;26.17;13.30;;;;;;;5.74;100.00;99996.78;5069938;28;20029;-68
2021/11/20 04:11:16;;;;;;;29.48;14.02;;;;;;;5.76;100.00;99994.78;5053877;28;20033;-69
2021/11/20 04:13:42;;;;;;;29.90;13.75;;;;;;;5.77;100.00;99988.44;5054402;28;20029;-69
2021/11/20 04:16:10;;;;;;;28.48;13.82;;;;;;;5.78;100.00;99987.44;5072868;28;20063;-68
2021/11/20 04:18:38;;;;;;;25.95;13.40;;;;;;;5.76;100.00;99981.34;5071665;28;20024;-69
2021/11/20 04:21:03;;;;;;;26.42;13.57;;;;;;;5.70;100.00;99985.44;5073122;28;20026;-69
2021/11/20 04:23:29;;;;;;;30.10;13.98;;;;;;;5.72;100.00;99980.78;5067332;28;20020;-68
2021/11/20 04:25:54;;;;;;;29.48;14.10;;;;;;;5.69;100.00;99978.41;5073849;28;20077;-69
2021/11/20 04:28:19;;;;;;;32.13;15.82;;;;;;;5.64;100.00;99980.66;5072207;28;20028;-68
2021/11/20 04:30:47;;;;;;;31.13;15.35;;;;;;;5.58;100.00;99973.19;5072895;28;20020;-68
2021/11/20 04:33:13;;;;;;;27.40;14.43;;;;;;;5.63;100.00;99980.78;5070896;28;20116;-68
2021/11/20 04:35:39;;;;;;;29.48;14.00;;;;;;;5.59;100.00;99974.88;5067913;28;20059;-70
2021/11/20 04:38:06;;;;;;;27.40;14.90;;;;;;;5.65;100.00;99974.28;5074507;28;20024;-72
2021/11/20 04:40:32;;;;;;;26.77;13.95;;;;;;;5.64;100.00;99969.94;5070048;28;20035;-71
2021/11/20 04:42:57;;;;;;;30.45;15.25;;;;;;;5.69;100.00;99972.19;5069380;28;20060;-71
2021/11/20 04:45:26;;;;;;;29.20;15.57;;;;;;;5.58;100.00;99956.22;5068469;28;20079;-71
2021/11/20 04:47:52;;;;;;;29.15;15.30;;;;;;;5.64;100.00;99961.88;5063912;28;20042;-70
2021/11/20 04:50:18;;;;;;;27.65;14.32;;;;;;;5.63;100.00;99967.38;5069125;28;20028;-69
2021/11/20 04:52:44;;;;;;;28.98;14.20;;;;;;;5.45;100.00;99943.13;5068886;28;20024;-69
2021/11/20 04:55:10;;;;;;;30.67;14.93;;;;;;;5.62;100.00;99965.69;5070086;28;20505;-73
2021/11/20 04:57:36;;;;;;;30.02;14.63;;;;;;;5.61;100.00;99953.28;5070031;28;20031;-71
2021/11/20 05:00:09;;;;;;;32.70;14.82;;;;;;;5.64;100.00;99956.50;5069345;28;20017;-71
2021/11/20 05:02:34;;;;;;;32.08;15.20;;;;;;;5.47;100.00;99941.94;5065547;28;20040;-71
2021/11/20 05:05:00;;;;;;;33.50;14.55;;;;;;;5.35;100.00;99912.75;5083104;28;20016;-69
2021/11/20 05:07:25;;;;;;;31.48;14.57;;;;;;;5.50;100.00;99932.78;5083519;28;20032;-71
2021/11/20 05:09:53;;;;;;;31.15;14.85;;;;;;;5.53;100.00;99940.56;5070537;28;20078;-71
2021/11/20 05:12:18;;;;;;;32.13;15.00;;;;;;;5.53;100.00;99931.63;5070507;28;20115;-70
2021/11/20 05:14:44;;;;;;;29.40;14.35;;;;;;;5.60;100.00;99927.41;5070336;28;20064;-70
2021/11/20 05:17:09;;;;;;;30.10;14.65;;;;;;;5.67;100.00;99947.31;5072639;28;20052;-70
2021/11/20 05:19:36;;;;;;;28.92;14.32;;;;;;;5.71;100.00;99946.03;5072545;28;20028;-70
2021/11/20 05:22:02;;;;;;;32.05;16.30;;;;;;;5.56;100.00;99926.84;5070289;28;20038;-70
2021/11/20 05:24:27;;;;;;;33.05;16.48;;;;;;;5.56;100.00;99917.94;5071464;28;20024;-72
2021/11/20 05:26:53;;;;;;;33.10;15.73;;;;;;;5.66;100.00;99935.75;5074104;28;20024;-71
2021/11/20 05:29:29;;;;;;;31.77;14.95;;;;;;;5.77;100.00;99932.03;5068200;28;20029;-71
2021/11/20 05:31:55;;;;;;;33.08;17.23;;;;;;;5.69;100.00;99894.31;5070802;28;20021;-71
2021/11/20 05:34:21;;;;;;;30.63;16.83;;;;;;;5.75;100.00;99928.66;5059608;28;20382;-69
2021/11/20 05:36:46;;;;;;;33.15;16.58;;;;;;;5.68;100.00;99922.16;5071937;28;20162;-70
2021/11/20 05:39:12;;;;;;;31.08;16.05;;;;;;;5.60;100.00;99900.56;5067345;28;20051;-71
2021/11/20 05:41:38;;;;;;;28.33;14.85;;;;;;;5.66;100.00;99924.16;5069907;28;20017;-71
2021/11/20 05:44:04;;;;;;;29.63;15.02;;;;;;;5.62;100.00;99901.25;5069072;28;20025;-72
2021/11/20 05:46:29;;;;;;;30.30;14.43;;;;;;;5.76;100.00;99906.16;5070924;28;20025;-71
2021/11/20 05:48:55;;;;;;;25.48;13.10;;;;;;;5.79;100.00;99902.34;5075063;28;20031;-71
2021/11/20 05:51:21;;;;;;;25.85;13.90;;;;;;;5.97;100.00;99927.47;5069057;28;20127;-72
2021/11/20 05:53:47;;;;;;;27.02;13.10;;;;;;;5.87;100.00;99915.91;5061630;28;20044;-69
2021/11/20 05:56:12;;;;;;;24.30;12.68;;;;;;;5.85;100.00;99907.16;5071534;28;20027;-72
2021/11/20 05:58:38;;;;;;;26.58;13.55;;;;;;;5.78;100.00;99922.13;5071002;28;20028;-72
2021/11/20 06:01:11;;;;;;;25.85;13.00;;;;;;;5.79;100.00;99900.53;5071597;28;20024;-72
2021/11/20 06:03:36;;;;;;;26.33;12.90;;;;;;;5.90;100.00;99926.34;5071758;28;20028;-71
2021/11/20 06:06:03;;;;;;;31.45;13.90;;;;;;;5.81;100.00;99911.94;5066016;28;20362;-70
2021/11/20 06:08:29;;;;;;;24.90;12.93;;;;;;;5.88;100.00;99915.75;5069007;28;20567;-70
2021/11/20 06:10:57;;;;;;;27.38;13.63;;;;;;;5.87;100.00;99927.50;5070269;28;20025;-70
2021/11/20 06:13:24;;;;;;;34.80;14.60;;;;;;;5.69;100.00;99918.50;5071949;28;20124;-72
2021/11/20 06:15:50;;;;;;;29.92;14.27;;;;;;;5.74;100.00;99926.97;5071181;28;20459;-72
2021/11/20 06:18:16;;;;;;;28.60;13.80;;;;;;;5.63;100.00;99903.81;5074535;28;20478;-70
2021/11/20 06:20:43;;;;;;;25.73;13.15;;;;;;;5.61;100.00;99896.91;5077585;28;20116;-72
2021/11/20 06:23:10;;;;;;;26.80;14.45;;;;;;;5.68;100.00;99906.03;5073175;28;20051;-72
2021/11/20 06:25:35;;;;;;;26.80;13.82;;;;;;;5.69;100.00;99905.06;5079766;28;20031;-72
2021/11/20 06:28:01;;;;;;;28.17;14.77;;;;;;;5.70;100.00;99915.66;5075884;28;20111;-71
2021/11/20 06:30:27;;;;;;;32.65;15.13;;;;;;;5.42;100.00;99871.78;5069260;28;20071;-72
2021/11/20 06:32:53;;;;;;;30.38;14.75;;;;;;;5.70;100.00;99917.50;5071080;28;20107;-70
2021/11/20 06:35:22;;;;;;;25.67;13.40;;;;;;;5.66;100.00;99908.03;5073920;28;20032;-71
2021/11/20 06:37:48;;;;;;;28.77;14.82;;;;;;;5.56;100.00;99896.47;5090466;28;20025;-72
2021/11/20 06:40:21;;;;;;;28.17;13.25;;;;;;;5.85;100.00;99916.03;5072152;28;20077;-71
2021/11/20 06:42:47;;;;;;;23.63;12.68;;;;;;;5.83;100.00;99923.38;5075831;28;20054;-72
2021/11/20 06:45:20;;;;;;;29.33;13.40;;;;;;;5.75;100.00;99906.31;5076268;28;20074;-73
2021/11/20 06:47:47;;;;;;;26.65;13.68;;;;;;;5.77;100.00;99925.81;5068322;28;20032;-70
2021/11/20 06:50:14;;;;;;;26.58;13.25;;;;;;;5.72;100.00;99885.97;5073080;28;20021;-73
2021/11/20 06:52:39;;;;;;;24.48;12.60;;;;;;;5.87;100.00;99911.38;5072393;28;20378;-70
2021/11/20 06:55:06;;;;;;;27.02;12.48;;;;;;;5.96;100.00;99911.53;5069747;28;20036;-70
2021/11/20 07:00:27;;;;;;;29.63;14.27;;;;;;;5.88;100.00;99921.13;5073517;28;20040;-70
2021/11/20 07:03:05;;;;;;;29.95;14.30;;;;;;;5.88;100.00;99929.16;5060812;28;20027;-70
2021/11/20 07:05:34;;;;;;;25.38;12.65;;;;;;;5.89;100.00;99920.16;5074058;28;20081;-70
2021/11/20 07:08:01;;;;;;;25.80;12.57;;;;;;;5.96;100.00;99917.72;5064129;28;20052;-70
2021/11/20 07:10:27;;;;;;;30.65;14.07;;;;;;;5.98;100.00;99922.97;5066159;28;20059;-70
2021/11/20 07:12:55;;;;;;;26.38;13.45;;;;;;;5.97;100.00;99915.88;5064743;28;20032;-70
2021/11/20 07:15:22;;;;;;;28.98;13.63;;;;;;;5.98;100.00;99920.28;5062673;28;20032;-70
2021/11/20 07:17:47;;;;;;;27.20;13.25;;;;;;;6.03;100.00;99910.78;5061193;28;20390;-70
2021/11/20 07:20:14;;;;;;;26.83;13.40;;;;;;;6.13;100.00;99916.09;5062533;28;20077;-72
2021/11/20 07:22:40;;;;;;;24.17;12.18;;;;;;;6.19;100.00;99907.47;5065082;28;20028;-71
2021/11/20 07:25:06;;;;;;;25.48;13.07;;;;;;;6.28;100.00;99914.63;5073601;28;20158;-69
2021/11/20 07:27:32;;;;;;;26.27;14.13;;;;;;;6.34;100.00;99914.06;5060771;28;20052;-71
2021/11/20 07:29:57;;;;;;;24.20;12.70;;;;;;;6.31;100.00;99903.63;5069012;28;20494;-69
2021/11/20 07:32:26;;;;;;;22.08;11.73;;;;;;;6.29;100.00;99894.84;5069636;28;20540;-73
2021/11/20 07:34:52;;;;;;;28.02;12.50;;;;;;;6.44;100.00;99907.78;5073169;28;20458;-69
2021/11/20 07:37:17;;;;;;;23.70;12.52;;;;;;;6.31;100.00;99887.50;5073328;28;20059;-72
2021/11/20 07:39:42;;;;;;;20.77;11.05;;;;;;;6.50;100.00;99905.34;5069236;28;20032;-73
2021/11/20 07:42:08;;;;;;;21.00;11.38;;;;;;;6.40;100.00;99885.72;5072878;28;20401;-73
2021/11/20 07:44:33;;;;;;;24.08;11.98;;;;;;;6.64;100.00;99903.97;5071589;28;20487;-72
2021/11/20 07:46:59;;;;;;;24.50;11.73;;;;;;;6.68;100.00;99899.13;5069215;28;20048;-72
2021/11/20 07:49:24;;;;;;;22.15;11.68;;;;;;;6.50;100.00;99859.63;5066832;28;20034;-70
2021/11/20 07:51:49;;;;;;;21.77;11.35;;;;;;;6.76;100.00;99880.41;5069319;28;20028;-70
2021/11/20 07:54:15;;;;;;;23.02;11.55;;;;;;;6.76;100.00;99870.50;5073653;28;20470;-70
2021/11/20 07:56:43;;;;;;;20.10;11.00;;;;;;;7.00;100.00;99896.78;5072259;28;20481;-70
2021/11/20 07:59:11;;;;;;;25.88;11.80;;;;;;;6.97;99.93;99896.28;5065352;28;20032;-71
2021/11/20 08:01:36;;;;;;;22.05;11.57;;;;;;;6.85;100.00;99857.13;5071301;28;20020;-71
2021/11/20 08:04:02;;;;;;;20.40;11.25;;;;;;;6.98;99.16;99871.03;5078625;28;20020;-74
2021/11/20 08:06:29;;;;;;;23.30;11.18;;;;;;;7.07;98.92;99875.47;5073933;28;20394;-72
2021/11/20 08:08:54;;;;;;;20.48;10.88;;;;;;;7.18;99.09;99885.19;5073137;28;20020;-72
2021/11/20 08:11:19;;;;;;;20.85;11.18;;;;;;;6.96;98.46;99848.81;5071271;28;20700;-73
2021/11/20 08:13:45;;;;;;;22.25;11.68;;;;;;;7.30;96.75;99842.72;5073072;28;20029;-72
2021/11/20 08:16:10;;;;;;;29.42;14.40;;;;;;;7.36;95.87;99851.03;5062682;28;20028;-72
2021/11/20 08:18:36;;;;;;;22.80;12.63;;;;;;;7.55;95.08;99843.75;5070351;28;20505;-72
2021/11/20 08:21:03;;;;;;;20.88;11.32;;;;;;;7.45;94.70;99846.53;5069078;28;20102;-73
2021/11/20 08:23:30;;;;;;;19.27;9.60;;;;;;;7.33;95.06;99821.69;5074836;28;20021;-74
2021/11/20 08:25:55;;;;;;;17.73;9.20;;;;;;;7.59;94.54;99843.25;5076976;28;20056;-68
2021/11/20 08:28:21;;;;;;;17.70;9.25;;;;;;;7.82;93.62;99856.19;5071811;28;20097;-68
2021/11/20 08:30:48;;;;;;;16.20;9.32;;;;;;;7.94;93.40;99843.28;5065820;28;20406;-75
2021/11/20 08:33:14;;;;;;;14.02;8.45;;;;;;;8.25;91.75;99851.66;5072356;28;20052;-71
2021/11/20 08:35:40;;;;;;;17.83;9.10;;;;;;;8.23;90.95;99826.75;5072812;28;20063;-70
2021/11/20 08:38:09;;;;;;;15.93;8.73;;;;;;;8.67;89.88;99840.03;5073203;28;20020;-70
2021/11/20 08:40:35;;;;;;;17.90;9.23;;;;;;;8.56;89.42;99812.34;5073721;28;20108;-69
2021/11/20 08:43:02;;;;;;;19.00;10.48;;;;;;;8.53;89.40;99804.59;5075258;28;20087;-72
2021/11/20 08:45:31;;;;;;;14.55;9.20;;;;;;;8.87;89.41;99825.22;5072978;28;20025;-74
2021/11/20 08:47:57;;;;;;;16.25;9.23;;;;;;;9.06;87.55;99837.53;5070668;28;20017;-70
2021/11/20 08:50:28;;;;;;;15.85;9.77;;;;;;;8.92;87.96;99816.63;5075749;28;20028;-69
2021/11/20 08:52:53;;;;;;;16.30;9.15;;;;;;;9.27;85.60;99814.59;5066962;28;20021;-71
2021/11/20 08:55:19;;;;;;;17.45;9.75;;;;;;;9.77;83.96;99829.69;5070710;28;20028;-70
2021/11/20 08:57:45;;;;;;;13.13;8.18;;;;;;;10.06;78.58;99826.38;5068923;28;20475;-72
2021/11/20 09:00:20;;;;;;;11.90;6.85;;;;;;;10.05;77.91;99824.72;5057388;28;20119;-71
2021/11/20 09:03:12;;;;;;;14.85;8.25;;;;;;;10.36;75.12;99794.19;5066075;28;20040;-70
2021/11/20 09:05:59;;;;;;;14.20;8.40;;;;;;;9.75;77.15;99812.84;5070627;28;20028;-70
2021/11/20 09:08:37;;;;;;;15.80;8.20;;;;;;;9.96;76.57;99821.22;5064835;28;20032;-71
2021/11/20 09:11:21;;;;;;;20.65;8.73;;;;;;;9.96;76.82;99817.66;5063398;28;20483;-70
2021/11/20 09:14:09;;;;;;;12.98;7.28;;;;;;;10.04;76.07;99817.63;5059585;28;20065;-72
2021/11/20 09:16:35;;;;;;;13.43;7.70;;;;;;;9.91;76.95;99809.25;5044977;28;20090;-76
2021/11/20 09:19:02;;;;;;;14.40;7.10;;;;;;;9.96;76.82;99821.22;5067541;28;20028;-71
2021/11/20 09:21:29;;;;;;;12.07;7.10;;;;;;;9.95;76.12;99821.38;5072332;28;20056;-71
2021/11/20 09:23:56;;;;;;;13.55;7.50;;;;;;;9.79;77.08;99815.00;5073689;28;20100;-74
2021/11/20 09:26:22;;;;;;;12.90;7.57;;;;;;;9.95;76.52;99810.56;5073844;28;20052;-72
2021/11/20 09:28:47;;;;;;;14.68;7.95;;;;;;;9.77;76.97;99795.44;5074167;28;20028;-74
2021/11/20 09:31:15;;;;;;;15.43;8.20;;;;;;;10.24;75.67;99797.28;5072523;28;20051;-72
2021/11/20 09:33:41;;;;;;;13.65;7.03;;;;;;;10.13;75.00;99794.09;5071282;28;20028;-71
2021/11/20 09:36:08;;;;;;;12.82;7.45;;;;;;;10.07;74.97;99799.19;5071438;28;20497;-72
2021/11/20 09:38:34;;;;;;;14.75;8.25;;;;;;;10.29;74.88;99800.28;5067381;28;20081;-71
2021/11/20 09:41:16;;;;;;;12.73;7.47;;;;;;;10.39;73.60;99802.78;5072290;28;20488;-72
2021/11/20 09:43:45;;;;;;;15.85;8.57;;;;;;;10.38;73.57;99800.28;5064605;28;20036;-72
2021/11/20 09:46:24;;;;;;;13.40;8.00;;;;;;;10.10;74.58;99777.19;5070399;28;20107;-72
2021/11/20 09:49:03;;;;;;;;;;;;;;;10.03;75.08;99800.56;5066835;28;20036;-73
2021/11/20 09:51:35;;;;;;;16.55;8.45;;;;;;;9.95;76.15;99797.88;5066764;28;19939;-72
2021/11/20 09:54:06;;;;;;;16.42;8.27;;;;;;;9.75;75.66;99802.88;5055760;28;20421;-70
2021/11/20 09:56:40;;;;;;;18.92;9.20;;;;;;;9.41;77.66;99779.63;5057375;28;20028;-70
2021/11/20 09:59:16;;;;;;;15.55;8.30;;;;;;;9.47;77.33;99794.31;5061635;28;20024;-70
2021/11/20 10:01:59;;;;;;;19.08;9.18;;;;;;;9.62;76.62;99786.34;5071976;28;20032;-71
2021/11/20 10:04:31;;;;;;;14.40;7.90;;;;;;;9.76;75.72;99793.72;5071940;28;20029;-69
2021/11/20 10:07:10;;;;;;;16.80;8.77;;;;;;;9.92;75.07;99795.53;5063670;28;20083;-70
2021/11/20 10:09:40;;;;;;;14.05;7.78;;;;;;;10.00;74.92;99791.94;5067699;28;20028;-70
2021/11/20 10:12:06;;;;;;;15.55;8.07;;;;;;;9.93;74.57;99788.25;5070806;28;20077;-69
2021/11/20 10:14:47;;;;;;;14.95;9.15;;;;;;;9.71;75.51;99784.47;5072274;28;20025;-69
2021/11/20 10:17:33;;;;;;;16.63;8.90;;;;;;;9.61;76.06;99780.06;5072023;28;20028;-69
2021/11/20 10:20:14;;;;;;;13.77;8.10;;;;;;;9.58;75.69;99777.72;5071460;28;20147;-69
2021/11/20 10:23:10;;;;;;;15.43;8.88;;;;;;;9.29;76.58;99774.75;5072060;28;20028;-69
2021/11/20 10:25:50;;;;;;;15.15;8.38;;;;;;;9.12;76.70;99780.19;5067470;28;20032;-69
2021/11/20 10:28:38;;;;;;;14.38;7.63;;;;;;;9.06;77.17;99777.31;5071441;28;20025;-69
2021/11/20 10:31:15;;;;;;;15.23;7.20;;;;;;;9.23;75.64;99770.91;5070565;28;20390;-69
2021/11/20 10:33:45;;;;;;;11.77;6.50;;;;;;;9.50;74.36;99756.16;5070269;28;20464;-69
2021/11/20 10:36:20;;;;;;;9.20;5.88;;;;;;;9.44;73.53;99759.53;5066268;28;20020;-69
2021/11/20 10:38:53;;;;;;;9.73;5.40;;;;;;;9.38;73.02;99749.44;5060842;28;20028;-69
2021/11/20 10:41:42;;;;;;;8.07;4.90;;;;;;;9.35;73.22;99761.44;5070303;28;20054;-70
2021/11/20 10:44:25;;;;;;;8.35;4.70;;;;;;;9.41;72.22;99752.63;5051340;28;20509;-70
2021/11/20 10:47:05;;;;;;;9.00;5.18;;;;;;;9.65;72.01;99757.13;5055180;28;20039;-70
2021/11/20 10:50:06;;;;;;;8.05;5.22;;;;;;;9.74;71.59;99748.97;5071075;28;20506;-70
2021/11/20 10:52:50;;;;;;;7.88;4.88;;;;;;;9.59;70.68;99740.78;5038906;28;20067;-69
2021/11/20 10:55:49;;;;;;;7.60;4.55;;;;;;;9.83;70.77;99734.44;5068863;28;20028;-69
2021/11/20 10:58:50;;;;;;;9.93;4.97;;;;;;;9.70;70.90;99726.88;5051948;28;20080;-68
2021/11/20 11:01:50;;;;;;;6.53;4.32;;;;;;;9.71;70.97;99725.00;5068550;28;20036;-69
2021/11/20 11:04:51;;;;;;;8.00;4.28;;;;;;;9.46;71.75;99721.53;5058615;28;20124;-69
2021/11/20 11:07:25;;;;;;;7.78;4.50;;;;;;;9.34;71.53;99712.97;5088765;28;20101;-69
2021/11/20 11:09:55;;;;;;;7.75;4.60;;;;;;;9.39;71.27;99714.13;5074587;28;20063;-69
2021/11/20 11:12:27;;;;;;;8.63;4.40;;;;;;;9.37;71.79;99713.47;5074882;28;20084;-69
2021/11/20 11:15:01;;;;;;;7.65;5.22;;;;;;;9.20;72.58;99706.44;5074787;28;20078;-69
2021/11/20 11:17:54;;;;;;;7.50;4.88;;;;;;;9.11;73.20;99691.25;5075001;28;20028;-69
2021/11/20 11:21:13;;;;;;;12.88;5.45;;;;;;;9.09;73.14;99694.16;5071735;28;20107;-70
2021/11/20 11:24:10;;;;;;;7.90;4.30;;;;;;;9.20;72.54;99685.69;5054221;28;20033;-71
2021/11/20 11:26:55;;;;;;;7.32;4.47;;;;;;;9.31;71.81;99675.53;5067138;28;20108;-70
2021/11/20 11:29:40;;;;;;;7.32;4.30;;;;;;;9.39;71.61;99672.78;5072662;28;20029;-70
2021/11/20 11:32:06;;;;;;;8.82;4.57;;;;;;;9.60;71.24;99669.50;5073496;28;20327;-70
2021/11/20 11:34:51;;;;;;;8.60;4.78;;;;;;;9.35;70.80;99639.91;5066797;28;20371;-71
2021/11/20 11:37:40;;;;;;;7.40;4.57;;;;;;;9.53;70.30;99665.81;5055043;28;20119;-70